Terminal Aerodrome Forecast
Issued by NWS

Home | Current Version | Previous Version | Text Only | Print | Product List | Glossary On
Versions: 1 2 3 4 5 6 7 8 9 10 11 12 13
000
FTAK31 PAJN 032300
TAFAPG
TAF
PAPG 032321Z 0400/0424 VRB05KT P6SM SCT040 OVC060
     FM040800 VRB03KT P6SM VCSH BKN040 OVC060
     FM041300 VRB03KT P6SM -RA OVC035
     FM041500 VRB04KT 6SM -RA OVC030
     FM042200 VRB05KT P6SM -RA OVC030
      AMD LTD TO CLD VIS AND WIND 0406/0415=

USA.gov is the U.S. government's official web portal to all federal, state and local government web resources and services.